Reggio Emilia Airport LIDE

Flugplatz Daten

Name: Reggio Emilia Airport

Ident: LIDE

Lat: 44,69829941

Long: 10,66279984

Platzhöhe: 152 ft

IataCode:

City: Reggio Emilia

Metar

2021/07/12 21:20
ENLE 122120Z 04006KT 1500 BR BKN/// 16/16 Q1013 W15/S3 FOG BELOW HELIDECK

Taf

Gewünschte Webcam nicht vorhanden? Dann fügen Sie eine hinzu. Sie wird dann so schnell wie möglich freigeschaltet
Url: Title: